createdAt,value
2022-08-31T00:00:21.008Z,19.52
2022-08-31T00:02:11.760Z,19.50
2022-08-31T00:04:03.681Z,19.47
2022-08-31T00:05:35.982Z,19.46
2022-08-31T00:07:08.826Z,19.44
2022-08-31T00:08:40.979Z,19.43
2022-08-31T00:10:20.059Z,19.42
2022-08-31T00:12:04.519Z,19.37
2022-08-31T00:13:37.089Z,19.40
2022-08-31T00:15:11.377Z,19.41
2022-08-31T00:16:44.935Z,19.43
2022-08-31T00:18:18.224Z,19.43
2022-08-31T00:19:50.124Z,19.48
2022-08-31T00:21:26.455Z,19.45
2022-08-31T00:22:58.439Z,19.40
2022-08-31T00:24:31.296Z,19.38
2022-08-31T00:26:03.451Z,19.34
2022-08-31T00:27:35.509Z,19.33
2022-08-31T00:29:07.844Z,19.33
2022-08-31T00:30:40.452Z,19.35
2022-08-31T00:32:12.484Z,19.36
2022-08-31T00:33:44.744Z,19.36
2022-08-31T00:35:16.820Z,19.33
2022-08-31T00:36:49.152Z,19.31
2022-08-31T00:38:21.234Z,19.26
2022-08-31T00:39:54.164Z,19.25
2022-08-31T00:41:30.105Z,19.27
2022-08-31T00:43:02.705Z,19.21
2022-08-31T00:44:37.543Z,19.18
2022-08-31T00:46:11.075Z,19.16
2022-08-31T00:47:43.323Z,19.17
2022-08-31T00:49:27.515Z,19.20
2022-08-31T00:50:59.640Z,19.14
2022-08-31T00:52:37.972Z,19.16
2022-08-31T00:54:12.473Z,19.17
2022-08-31T00:55:44.479Z,19.16
2022-08-31T00:57:16.846Z,19.13
2022-08-31T00:58:54.762Z,19.12
2022-08-31T01:00:28.531Z,19.13
2022-08-31T01:02:02.054Z,19.14
2022-08-31T01:03:34.270Z,19.16
2022-08-31T01:05:07.869Z,19.20
2022-08-31T01:06:40.439Z,19.17
2022-08-31T01:08:12.483Z,19.12
2022-08-31T01:09:52.690Z,19.10
2022-08-31T01:11:28.659Z,19.04
2022-08-31T01:13:01.673Z,19.05
2022-08-31T01:14:34.448Z,19.01
2022-08-31T01:16:11.398Z,18.97
2022-08-31T01:17:44.789Z,18.96
2022-08-31T01:19:31.994Z,19.01
2022-08-31T01:21:22.809Z,19.07
2022-08-31T01:23:08.707Z,19.06
2022-08-31T01:24:43.066Z,19.04
2022-08-31T01:26:19.863Z,19.02
2022-08-31T01:27:52.145Z,18.94
2022-08-31T01:29:24.226Z,18.91
2022-08-31T01:31:27.992Z,18.87
2022-08-31T01:33:00.161Z,18.80
2022-08-31T01:34:33.145Z,18.78
2022-08-31T01:36:06.095Z,18.76
2022-08-31T01:37:38.281Z,18.71
2022-08-31T01:39:11.282Z,18.71
2022-08-31T01:40:51.216Z,18.72
2022-08-31T01:42:23.368Z,18.71
2022-08-31T01:44:05.545Z,18.70
2022-08-31T03:28:15.127Z,18.22
2022-08-31T03:29:47.210Z,18.16
2022-08-31T03:31:19.390Z,18.15
2022-08-31T03:32:51.762Z,18.15
2022-08-31T03:34:27.090Z,18.14
2022-08-31T03:35:59.559Z,18.14
2022-08-31T03:37:32.668Z,18.13
2022-08-31T03:39:05.094Z,18.14
2022-08-31T03:40:37.529Z,18.15
2022-08-31T03:42:09.775Z,18.17
2022-08-31T03:43:41.949Z,18.20
2022-08-31T03:45:14.994Z,18.21
2022-08-31T03:46:48.371Z,18.19
2022-08-31T03:48:20.499Z,18.17
2022-08-31T03:49:52.707Z,18.16
2022-08-31T03:51:24.889Z,18.16
2022-08-31T03:52:56.970Z,18.14
2022-08-31T03:54:29.107Z,18.15
2022-08-31T03:56:03.890Z,18.19
2022-08-31T03:57:36.398Z,18.25
2022-08-31T03:59:08.519Z,18.27
2022-08-31T04:00:43.407Z,18.31
2022-08-31T04:02:15.478Z,18.26
2022-08-31T04:03:47.614Z,18.25
2022-08-31T04:05:21.588Z,18.21
2022-08-31T04:06:53.637Z,18.18
2022-08-31T04:08:26.204Z,18.16
2022-08-31T04:09:58.300Z,18.12
2022-08-31T04:11:44.828Z,18.10
2022-08-31T04:13:20.595Z,18.10
2022-08-31T04:14:52.759Z,18.14
2022-08-31T04:16:26.380Z,18.22
2022-08-31T04:17:58.493Z,18.24
2022-08-31T04:19:31.642Z,18.21
2022-08-31T04:21:04.133Z,18.25
2022-08-31T04:22:36.219Z,18.23
2022-08-31T04:24:08.289Z,18.22
2022-08-31T04:25:41.605Z,18.20
2022-08-31T04:27:13.541Z,18.23
2022-08-31T04:28:46.354Z,18.24
2022-08-31T04:30:18.770Z,18.27
2022-08-31T04:31:54.274Z,18.30
2022-08-31T04:33:26.424Z,18.35
2022-08-31T04:34:58.630Z,18.41
2022-08-31T04:36:31.051Z,18.46
2022-08-31T04:38:03.170Z,18.49
2022-08-31T04:39:51.075Z,18.50
2022-08-31T04:41:25.620Z,18.56
2022-08-31T04:42:58.293Z,18.58
2022-08-31T04:44:30.429Z,18.59
2022-08-31T04:46:03.894Z,18.64
2022-08-31T04:47:36.192Z,18.68
2022-08-31T04:49:11.057Z,18.74
2022-08-31T04:50:43.386Z,18.77
2022-08-31T04:52:15.577Z,18.82
2022-08-31T04:53:48.344Z,18.84
2022-08-31T04:55:20.589Z,18.88
2022-08-31T04:56:52.790Z,18.92
2022-08-31T04:58:25.579Z,18.95
2022-08-31T04:59:57.950Z,19.03
2022-08-31T05:01:42.494Z,19.09
2022-08-31T05:03:15.252Z,19.13
2022-08-31T05:04:47.417Z,19.13
2022-08-31T05:06:27.816Z,19.27
2022-08-31T05:07:59.957Z,19.31
2022-08-31T05:09:32.602Z,19.38
2022-08-31T05:11:14.825Z,19.48
2022-08-31T05:12:46.872Z,19.52
2022-08-31T05:14:19.482Z,19.60
2022-08-31T05:15:55.002Z,19.67
2022-08-31T05:17:27.388Z,19.73
2022-08-31T05:19:00.181Z,19.80
2022-08-31T05:20:32.258Z,19.85
2022-08-31T05:22:04.419Z,19.90
2022-08-31T05:23:36.563Z,19.98
2022-08-31T05:25:09.884Z,20.06
2022-08-31T05:26:45.697Z,20.16
2022-08-31T05:28:23.839Z,20.18
2022-08-31T05:29:56.241Z,20.24
2022-08-31T05:31:31.699Z,20.31
2022-08-31T05:34:44.035Z,20.43
2022-08-31T05:36:16.570Z,20.51
2022-08-31T05:37:50.858Z,20.61
2022-08-31T05:39:23.556Z,20.66
2022-08-31T05:40:58.978Z,20.73
2022-08-31T05:42:31.447Z,20.77
2022-08-31T05:44:05.660Z,20.86
2022-08-31T05:45:43.113Z,20.92
2022-08-31T05:47:15.300Z,20.96
2022-08-31T05:48:49.119Z,21.03
2022-08-31T05:50:21.919Z,21.10
2022-08-31T05:51:54.353Z,21.14
2022-08-31T05:53:27.617Z,21.19
2022-08-31T05:54:59.626Z,21.32
2022-08-31T05:56:35.016Z,21.35
2022-08-31T05:58:07.372Z,21.39
2022-08-31T05:59:40.214Z,21.45
2022-08-31T06:01:19.383Z,21.50
2022-08-31T06:02:53.877Z,21.50
2022-08-31T06:04:26.702Z,21.56
2022-08-31T06:05:58.731Z,21.61
2022-08-31T06:07:30.742Z,21.65
2022-08-31T06:09:03.078Z,21.72
2022-08-31T06:10:35.288Z,21.79
2022-08-31T06:12:07.811Z,21.86
2022-08-31T06:13:40.508Z,21.91
2022-08-31T06:15:12.983Z,21.97
2022-08-31T06:16:45.452Z,22.03
2022-08-31T06:18:17.551Z,22.10
2022-08-31T06:19:50.452Z,22.14
2022-08-31T06:21:28.092Z,22.21
2022-08-31T06:23:00.375Z,22.28
2022-08-31T06:24:32.525Z,22.35
2022-08-31T06:26:06.586Z,22.43
2022-08-31T06:27:39.058Z,22.48
2022-08-31T06:29:12.057Z,22.56
2022-08-31T06:30:54.735Z,22.62
2022-08-31T06:32:27.669Z,22.68
2022-08-31T06:34:00.671Z,22.71
2022-08-31T06:35:33.130Z,22.77
2022-08-31T06:37:05.889Z,22.80
2022-08-31T06:38:38.071Z,22.83
2022-08-31T06:40:10.801Z,22.89
2022-08-31T06:41:43.476Z,22.92
2022-08-31T06:43:15.969Z,22.94
2022-08-31T06:44:50.045Z,23.00
2022-08-31T06:46:24.206Z,23.04
2022-08-31T06:47:58.594Z,23.10
2022-08-31T06:49:30.641Z,23.16
2022-08-31T06:51:02.997Z,23.22
2022-08-31T06:52:38.827Z,23.29
2022-08-31T06:54:29.071Z,23.37
2022-08-31T06:56:20.195Z,23.43
2022-08-31T06:57:53.546Z,23.46
2022-08-31T06:59:28.818Z,23.47
2022-08-31T07:01:09.573Z,23.53
2022-08-31T07:02:41.826Z,23.55
2022-08-31T07:04:14.611Z,23.59
2022-08-31T07:05:46.906Z,23.62
2022-08-31T07:08:58.394Z,23.74
2022-08-31T07:10:30.469Z,23.80
2022-08-31T07:12:03.145Z,23.87
2022-08-31T07:13:35.433Z,23.89
2022-08-31T07:15:08.218Z,23.94
2022-08-31T07:16:41.355Z,23.96
2022-08-31T07:18:13.638Z,24.08
2022-08-31T07:19:45.678Z,24.12
2022-08-31T07:21:23.257Z,24.19
2022-08-31T07:22:55.404Z,24.18
2022-08-31T07:24:30.870Z,24.25
2022-08-31T07:26:08.051Z,24.32
2022-08-31T07:29:19.422Z,24.46
2022-08-31T07:30:52.129Z,24.49
2022-08-31T07:32:24.625Z,24.54
2022-08-31T07:33:57.932Z,24.59
2022-08-31T07:35:34.255Z,24.65
2022-08-31T07:37:25.745Z,24.70
2022-08-31T07:39:16.877Z,24.75
2022-08-31T07:41:08.193Z,24.79
2022-08-31T07:44:15.018Z,24.87
2022-08-31T07:45:48.198Z,24.90
2022-08-31T07:47:22.644Z,24.97
2022-08-31T07:48:55.044Z,24.97
2022-08-31T07:50:27.975Z,24.98
2022-08-31T07:52:00.795Z,24.98
2022-08-31T07:53:40.293Z,24.94
2022-08-31T07:55:16.122Z,25.01
2022-08-31T07:56:52.762Z,25.06
2022-08-31T07:58:28.403Z,25.06
2022-08-31T08:00:07.396Z,25.05
2022-08-31T08:01:41.673Z,25.06
2022-08-31T08:03:14.070Z,25.10
2022-08-31T08:04:47.057Z,25.11
2022-08-31T08:06:20.052Z,25.10
2022-08-31T08:07:55.391Z,25.16
2022-08-31T08:09:30.282Z,25.20
2022-08-31T08:11:04.973Z,25.26
2022-08-31T08:12:37.463Z,25.26
2022-08-31T08:14:09.933Z,25.34
2022-08-31T08:15:42.324Z,25.34
2022-08-31T08:18:48.346Z,25.40
2022-08-31T08:20:34.304Z,25.48
2022-08-31T08:22:10.668Z,25.52
2022-08-31T08:23:42.866Z,25.56
2022-08-31T08:25:16.614Z,25.58
2022-08-31T08:26:54.119Z,25.63
2022-08-31T08:28:46.185Z,25.67
2022-08-31T08:30:19.356Z,25.73
2022-08-31T08:31:56.274Z,25.82
2022-08-31T08:33:30.327Z,25.85
2022-08-31T08:35:02.706Z,25.88
2022-08-31T08:36:37.383Z,25.91
2022-08-31T08:38:09.954Z,25.95
2022-08-31T08:39:43.570Z,26.01
2022-08-31T08:41:27.172Z,26.03
2022-08-31T08:43:00.268Z,26.10
2022-08-31T08:44:36.344Z,26.09
2022-08-31T08:46:31.293Z,26.15
2022-08-31T08:47:58.502Z,26.18
2022-08-31T08:49:52.137Z,26.23
2022-08-31T08:51:33.028Z,26.22
2022-08-31T08:53:08.174Z,26.18
2022-08-31T08:54:42.684Z,26.15
2022-08-31T08:56:32.247Z,26.12
2022-08-31T08:58:08.315Z,26.14
2022-08-31T08:59:45.234Z,26.18
2022-08-31T09:01:24.820Z,26.20
2022-08-31T09:03:23.863Z,26.24
2022-08-31T09:05:40.254Z,26.24
2022-08-31T09:07:31.886Z,26.24
2022-08-31T09:09:31.027Z,26.25
2022-08-31T09:11:19.006Z,26.32
2022-08-31T09:12:58.629Z,26.39
2022-08-31T09:15:08.402Z,26.45
2022-08-31T09:17:02.209Z,26.47
2022-08-31T09:18:34.893Z,26.42
2022-08-31T09:20:08.554Z,26.50
2022-08-31T09:21:56.461Z,26.62
2022-08-31T09:23:30.277Z,26.68
2022-08-31T09:25:04.057Z,26.71
2022-08-31T09:27:21.443Z,26.81
2022-08-31T09:28:54.392Z,26.85
2022-08-31T09:30:52.917Z,26.94
2022-08-31T09:32:36.245Z,27.00
2022-08-31T09:34:28.928Z,27.08
2022-08-31T09:36:14.990Z,27.13
2022-08-31T09:38:02.617Z,27.16
2022-08-31T09:39:37.169Z,27.21
2022-08-31T09:41:21.914Z,27.29
2022-08-31T09:43:17.881Z,27.32
2022-08-31T09:44:51.242Z,27.35
2022-08-31T09:46:28.690Z,27.38
2022-08-31T09:48:02.164Z,27.40
2022-08-31T09:49:39.824Z,27.48
2022-08-31T09:51:21.093Z,27.54
2022-08-31T09:53:44.744Z,27.59
2022-08-31T09:55:22.272Z,27.63
2022-08-31T09:56:58.996Z,27.69
2022-08-31T09:58:33.873Z,27.70
2022-08-31T10:00:06.981Z,27.63
2022-08-31T10:01:44.755Z,27.69
2022-08-31T10:03:31.596Z,27.70
2022-08-31T10:05:07.470Z,27.69
2022-08-31T10:06:53.066Z,27.66
2022-08-31T10:08:59.482Z,27.61
2022-08-31T10:10:36.345Z,27.57
2022-08-31T10:12:12.325Z,27.60
2022-08-31T10:14:20.939Z,27.64
2022-08-31T10:16:00.518Z,27.61
2022-08-31T10:17:45.729Z,27.69
2022-08-31T10:19:44.460Z,27.72
2022-08-31T10:21:25.530Z,27.68
2022-08-31T10:23:07.198Z,27.74
2022-08-31T10:24:47.090Z,27.80
2022-08-31T10:26:29.572Z,27.80
2022-08-31T10:28:08.138Z,27.92
2022-08-31T10:29:56.694Z,27.96
2022-08-31T10:31:42.879Z,27.93
2022-08-31T10:33:21.908Z,27.87
2022-08-31T10:35:20.185Z,27.84
2022-08-31T10:36:59.334Z,27.78
2022-08-31T10:38:36.769Z,27.80
2022-08-31T10:40:34.249Z,27.79
2022-08-31T10:42:11.980Z,27.79
2022-08-31T10:44:08.494Z,27.76
2022-08-31T10:45:44.464Z,27.70
2022-08-31T10:47:21.588Z,27.62
2022-08-31T10:49:05.497Z,27.55
2022-08-31T10:50:46.990Z,27.48
2022-08-31T10:52:48.702Z,27.38
2022-08-31T10:54:36.208Z,27.28
2022-08-31T10:56:15.517Z,27.24
2022-08-31T10:58:04.984Z,27.21
2022-08-31T11:00:32.893Z,27.17
2022-08-31T11:02:23.338Z,27.14
2022-08-31T11:04:19.147Z,27.16
2022-08-31T11:05:57.412Z,27.22
2022-08-31T11:07:55.827Z,27.32
2022-08-31T11:10:09.990Z,27.45
2022-08-31T11:12:07.505Z,27.60
2022-08-31T11:13:52.598Z,27.66
2022-08-31T11:15:59.532Z,27.69
2022-08-31T11:17:56.070Z,27.66
2022-08-31T11:19:55.604Z,27.65
2022-08-31T11:21:45.789Z,27.59
2022-08-31T11:23:33.249Z,27.56
2022-08-31T11:25:18.083Z,27.50
2022-08-31T11:27:00.725Z,27.43
2022-08-31T11:28:38.137Z,27.38
2022-08-31T11:30:24.828Z,27.33
2022-08-31T11:32:01.399Z,27.25
2022-08-31T11:33:33.832Z,27.17
2022-08-31T11:35:11.005Z,27.15
2022-08-31T11:37:01.427Z,27.12
2022-08-31T11:38:55.055Z,27.09
2022-08-31T11:40:45.729Z,27.07
2022-08-31T11:42:33.790Z,27.02
2022-08-31T11:44:09.305Z,26.98
2022-08-31T11:45:44.768Z,26.96
2022-08-31T11:47:30.389Z,26.95
2022-08-31T11:49:02.942Z,26.91
2022-08-31T11:50:41.109Z,26.92
2022-08-31T11:52:26.044Z,26.91
2022-08-31T11:53:58.468Z,26.90
2022-08-31T11:55:31.735Z,26.91
2022-08-31T11:57:06.720Z,26.94
2022-08-31T11:58:40.678Z,26.94
2022-08-31T12:00:21.289Z,26.97
2022-08-31T12:01:58.772Z,26.96
2022-08-31T12:03:46.435Z,27.00
2022-08-31T12:05:58.514Z,27.02
2022-08-31T12:07:30.718Z,27.01
2022-08-31T12:09:12.444Z,27.04
2022-08-31T12:11:05.550Z,27.10
2022-08-31T12:12:52.772Z,27.13
2022-08-31T12:14:51.723Z,27.17
2022-08-31T12:16:30.573Z,27.19
2022-08-31T12:18:18.469Z,27.30
2022-08-31T12:20:08.910Z,27.36
2022-08-31T12:22:15.302Z,27.40
2022-08-31T12:23:56.351Z,27.45
2022-08-31T12:26:04.544Z,27.52
2022-08-31T12:27:58.416Z,27.55
2022-08-31T12:29:36.705Z,27.60
2022-08-31T12:31:14.267Z,27.65
2022-08-31T12:32:47.456Z,27.65
2022-08-31T12:34:20.405Z,27.66
2022-08-31T12:36:14.825Z,27.71
2022-08-31T12:37:58.861Z,27.73
2022-08-31T12:39:32.591Z,27.69
2022-08-31T12:41:05.987Z,27.70
2022-08-31T12:43:06.356Z,27.68
2022-08-31T12:44:43.549Z,27.65
2022-08-31T12:46:54.591Z,27.65
2022-08-31T12:49:16.549Z,27.62
2022-08-31T12:51:15.681Z,27.61
2022-08-31T12:53:08.765Z,27.57
2022-08-31T12:55:09.026Z,27.55
2022-08-31T12:56:44.567Z,27.52
2022-08-31T12:58:48.320Z,27.53
2022-08-31T13:00:21.862Z,27.50
2022-08-31T13:01:55.048Z,27.52
2022-08-31T13:05:01.074Z,27.49
2022-08-31T13:06:36.405Z,27.51
2022-08-31T13:08:25.670Z,27.48
2022-08-31T13:10:16.752Z,27.48
2022-08-31T13:11:52.523Z,27.43
2022-08-31T13:13:28.086Z,27.45
2022-08-31T13:15:00.294Z,27.43
2022-08-31T13:16:32.913Z,27.47
2022-08-31T13:18:24.053Z,27.53
2022-08-31T13:19:58.712Z,27.51
2022-08-31T13:21:33.095Z,27.49
2022-08-31T13:23:09.790Z,27.44
2022-08-31T13:24:51.368Z,27.45
2022-08-31T13:26:26.698Z,27.39
2022-08-31T13:27:59.069Z,27.23
2022-08-31T13:29:31.747Z,27.27
2022-08-31T13:31:08.340Z,27.25
2022-08-31T13:32:45.419Z,27.18
2022-08-31T13:34:19.595Z,27.15
2022-08-31T13:35:56.989Z,27.11
2022-08-31T13:37:36.969Z,27.07
2022-08-31T13:39:15.793Z,27.04
2022-08-31T13:40:51.751Z,26.99
2022-08-31T13:42:29.758Z,26.98
2022-08-31T13:44:06.358Z,26.93
2022-08-31T13:45:58.760Z,26.85
2022-08-31T13:47:47.540Z,26.81
2022-08-31T13:49:37.917Z,26.64
2022-08-31T13:51:17.924Z,26.55
2022-08-31T13:55:08.189Z,26.32
2022-08-31T13:56:57.986Z,26.18
2022-08-31T13:58:32.679Z,26.01
2022-08-31T14:00:25.880Z,25.85
2022-08-31T14:02:06.111Z,25.73
2022-08-31T14:03:51.966Z,25.65
2022-08-31T14:05:33.086Z,25.56
2022-08-31T14:07:08.170Z,25.43
2022-08-31T14:08:40.612Z,25.33
2022-08-31T14:10:23.276Z,25.24
2022-08-31T14:12:03.585Z,25.15
2022-08-31T14:13:37.689Z,25.01
2022-08-31T14:15:17.976Z,24.96
2022-08-31T14:16:52.528Z,24.83
2022-08-31T14:18:39.641Z,24.74
2022-08-31T14:20:53.420Z,24.67
2022-08-31T14:22:36.504Z,24.59
2022-08-31T14:24:12.747Z,24.53
2022-08-31T14:25:45.299Z,24.44
2022-08-31T14:27:17.854Z,24.41
2022-08-31T14:28:53.741Z,24.37
2022-08-31T14:30:26.236Z,24.30
2022-08-31T14:31:59.208Z,24.23
2022-08-31T14:33:32.397Z,24.19
2022-08-31T14:35:11.740Z,24.21
2022-08-31T14:36:52.745Z,24.03
2022-08-31T14:38:25.910Z,24.04
2022-08-31T14:40:05.576Z,24.02
2022-08-31T14:41:40.403Z,23.99
2022-08-31T14:43:15.500Z,24.01
2022-08-31T14:44:54.040Z,23.95
2022-08-31T14:46:28.597Z,23.91
2022-08-31T14:48:01.097Z,23.90
2022-08-31T14:49:36.251Z,23.86
2022-08-31T14:51:11.228Z,23.92
2022-08-31T14:52:45.834Z,23.90
2022-08-31T14:54:18.327Z,23.90
2022-08-31T14:55:50.636Z,23.88
2022-08-31T14:57:28.467Z,23.92
2022-08-31T14:59:04.928Z,23.94
2022-08-31T15:00:51.103Z,23.94
2022-08-31T15:02:28.435Z,23.95
2022-08-31T15:04:04.486Z,23.94
2022-08-31T15:05:39.703Z,23.92
2022-08-31T15:07:12.053Z,23.95
2022-08-31T15:08:44.526Z,23.96
2022-08-31T15:10:18.004Z,23.95
2022-08-31T15:11:51.451Z,23.99
2022-08-31T15:13:24.168Z,23.97
2022-08-31T15:15:01.028Z,23.97
2022-08-31T15:16:33.545Z,23.95
2022-08-31T15:18:06.967Z,23.95
2022-08-31T15:19:41.182Z,23.97
2022-08-31T15:21:13.582Z,23.97
2022-08-31T15:22:47.676Z,23.98
2022-08-31T15:24:22.191Z,24.00
2022-08-31T15:26:04.436Z,24.00
2022-08-31T15:27:37.802Z,23.98
2022-08-31T15:29:14.320Z,23.93
2022-08-31T15:30:49.024Z,23.92
2022-08-31T15:32:21.391Z,23.91
2022-08-31T15:33:57.562Z,23.90
2022-08-31T15:35:32.335Z,23.87
2022-08-31T15:37:06.907Z,23.87
2022-08-31T15:38:40.655Z,23.86
2022-08-31T15:40:15.575Z,23.84
2022-08-31T15:43:27.848Z,23.78
2022-08-31T15:45:00.657Z,23.74
2022-08-31T15:46:51.618Z,23.71
2022-08-31T15:48:42.457Z,23.69
2022-08-31T15:50:19.639Z,23.65
2022-08-31T15:51:57.470Z,23.60
2022-08-31T15:53:30.985Z,23.58
2022-08-31T15:55:03.826Z,23.54
2022-08-31T15:56:40.295Z,23.50
2022-08-31T15:58:14.131Z,23.50
2022-08-31T15:59:46.701Z,23.46
2022-08-31T16:01:19.329Z,23.43
2022-08-31T16:02:54.254Z,23.40
2022-08-31T16:04:26.716Z,23.41
2022-08-31T16:06:01.507Z,23.40
2022-08-31T16:07:35.407Z,23.45
2022-08-31T16:09:10.145Z,23.42
2022-08-31T16:10:44.936Z,23.43
2022-08-31T16:12:17.450Z,23.40
2022-08-31T16:13:59.858Z,23.35
2022-08-31T16:15:36.331Z,23.37
2022-08-31T16:17:09.909Z,23.38
2022-08-31T16:18:42.325Z,23.34
2022-08-31T16:20:15.077Z,23.34
2022-08-31T16:21:49.314Z,23.33
2022-08-31T16:23:21.743Z,23.31
2022-08-31T16:24:54.313Z,23.34
2022-08-31T16:26:31.695Z,23.33
2022-08-31T16:28:06.626Z,23.31
2022-08-31T16:29:40.166Z,23.30
2022-08-31T16:31:13.011Z,23.28
2022-08-31T16:32:48.127Z,23.28
2022-08-31T16:34:23.573Z,23.27
2022-08-31T16:35:56.087Z,23.29
2022-08-31T16:37:28.556Z,23.22
2022-08-31T16:39:02.376Z,23.20
2022-08-31T16:40:35.827Z,23.17
2022-08-31T16:42:11.587Z,23.19
2022-08-31T16:43:54.649Z,23.16
2022-08-31T16:45:40.134Z,23.18
2022-08-31T16:47:13.037Z,23.15
2022-08-31T16:49:03.871Z,23.14
2022-08-31T16:50:36.242Z,23.15
2022-08-31T16:52:22.136Z,23.17
2022-08-31T16:53:56.884Z,23.17
2022-08-31T16:55:29.263Z,23.14
2022-08-31T16:57:01.932Z,23.12
2022-08-31T16:58:51.181Z,23.04
2022-08-31T17:00:28.333Z,22.95
2022-08-31T17:02:05.696Z,22.89
2022-08-31T17:03:38.163Z,22.88
2022-08-31T17:05:10.458Z,22.88
2022-08-31T17:06:45.469Z,22.88
2022-08-31T17:08:18.042Z,22.84
2022-08-31T17:09:50.631Z,22.80
2022-08-31T17:11:27.006Z,22.77
2022-08-31T17:12:59.378Z,22.70
2022-08-31T17:14:36.465Z,22.66
2022-08-31T17:16:08.972Z,22.61
2022-08-31T17:17:41.548Z,22.59
2022-08-31T17:19:15.097Z,22.62
2022-08-31T17:20:48.238Z,22.57
2022-08-31T17:22:31.803Z,22.55
2022-08-31T17:24:05.890Z,22.49
2022-08-31T17:25:43.795Z,22.40
2022-08-31T17:27:19.645Z,22.35
2022-08-31T17:29:03.005Z,22.28
2022-08-31T17:30:35.870Z,22.21
2022-08-31T17:32:09.930Z,22.19
2022-08-31T17:33:42.235Z,22.13
2022-08-31T17:35:19.102Z,22.07
2022-08-31T17:36:52.429Z,22.05
2022-08-31T17:38:24.961Z,22.06
2022-08-31T17:39:57.909Z,22.05
2022-08-31T17:41:33.170Z,21.99
2022-08-31T17:43:05.613Z,21.99
2022-08-31T17:44:38.195Z,21.99
2022-08-31T17:46:12.749Z,22.02
2022-08-31T17:47:45.180Z,21.98
2022-08-31T17:49:19.740Z,21.93
2022-08-31T17:50:52.203Z,21.86
2022-08-31T17:52:24.646Z,21.84
2022-08-31T17:54:02.886Z,21.85
2022-08-31T17:55:35.420Z,21.85
2022-08-31T17:57:10.878Z,21.85
2022-08-31T17:58:44.022Z,21.79
2022-08-31T18:00:17.266Z,21.75
2022-08-31T18:01:50.660Z,21.75
2022-08-31T18:03:23.342Z,21.70
2022-08-31T18:04:55.849Z,21.68
2022-08-31T18:06:28.906Z,21.68
2022-08-31T18:08:01.250Z,21.62
2022-08-31T18:09:35.728Z,21.58
2022-08-31T18:11:08.236Z,21.52
2022-08-31T18:12:42.569Z,21.45
2022-08-31T18:14:19.049Z,21.41
2022-08-31T18:15:51.562Z,21.38
2022-08-31T18:17:24.087Z,21.37
2022-08-31T18:18:56.510Z,21.32
2022-08-31T18:20:28.884Z,21.31
2022-08-31T18:22:01.624Z,21.28
2022-08-31T18:23:34.054Z,21.21
2022-08-31T18:25:06.908Z,21.15
2022-08-31T18:26:44.845Z,21.15
2022-08-31T18:28:18.462Z,21.14
2022-08-31T18:29:51.113Z,21.14
2022-08-31T18:31:31.038Z,21.12
2022-08-31T18:33:04.115Z,21.07
2022-08-31T18:34:40.513Z,21.07
2022-08-31T18:36:13.242Z,21.05
2022-08-31T18:37:45.608Z,21.06
2022-08-31T18:39:40.738Z,21.08
2022-08-31T18:41:33.488Z,21.09
2022-08-31T18:43:24.091Z,21.10
2022-08-31T18:48:34.437Z,21.04
2022-08-31T18:50:07.294Z,21.02
2022-08-31T18:51:47.107Z,20.98
2022-08-31T18:53:27.906Z,20.97
2022-08-31T18:55:02.109Z,20.96
2022-08-31T18:56:34.579Z,20.96
2022-08-31T18:58:07.607Z,20.94
2022-08-31T18:59:40.514Z,20.91
2022-08-31T19:01:16.098Z,20.86
2022-08-31T19:02:53.328Z,20.81
2022-08-31T19:04:25.816Z,20.75
2022-08-31T19:05:58.302Z,20.72
2022-08-31T19:07:30.718Z,20.70
2022-08-31T19:09:04.088Z,20.70
2022-08-31T19:10:36.523Z,20.66
2022-08-31T19:12:09.062Z,20.59
2022-08-31T19:13:41.581Z,20.54
2022-08-31T19:15:14.085Z,20.51
2022-08-31T19:16:47.407Z,20.52
2022-08-31T19:18:24.403Z,20.55
2022-08-31T19:19:57.121Z,20.55
2022-08-31T19:21:32.900Z,20.57
2022-08-31T19:23:05.701Z,20.55
2022-08-31T19:24:39.695Z,20.52
2022-08-31T19:26:24.574Z,20.52
2022-08-31T19:27:57.247Z,20.49
2022-08-31T19:29:31.655Z,20.49
2022-08-31T19:31:06.978Z,20.43
2022-08-31T19:32:39.336Z,20.38
2022-08-31T19:34:14.174Z,20.39
2022-08-31T19:35:46.699Z,20.34
2022-08-31T19:37:21.813Z,20.29
2022-08-31T19:38:54.328Z,20.26
2022-08-31T19:40:37.536Z,20.22
2022-08-31T19:42:10.131Z,20.18
2022-08-31T19:43:52.213Z,20.12
2022-08-31T19:45:40.839Z,20.09
2022-08-31T19:47:30.218Z,20.05
2022-08-31T19:49:04.007Z,20.06
2022-08-31T19:50:43.526Z,20.06
2022-08-31T19:52:16.042Z,20.01
2022-08-31T19:53:50.329Z,20.03
2022-08-31T19:55:22.780Z,20.02
2022-08-31T19:56:55.148Z,20.06
2022-08-31T19:58:27.633Z,20.11
2022-08-31T20:00:00.124Z,20.12
2022-08-31T20:01:35.977Z,20.16
2022-08-31T20:03:08.576Z,20.17
2022-08-31T20:04:45.854Z,20.20
2022-08-31T20:06:20.293Z,20.22
2022-08-31T20:07:52.682Z,20.20
2022-08-31T20:09:29.687Z,20.14
2022-08-31T20:11:02.719Z,20.10
2022-08-31T20:12:35.129Z,20.03
2022-08-31T20:14:07.864Z,19.99
2022-08-31T20:15:44.864Z,19.98
2022-08-31T20:17:17.706Z,19.92
2022-08-31T20:18:52.041Z,19.90
2022-08-31T20:20:27.541Z,19.86
2022-08-31T20:22:07.096Z,19.81
2022-08-31T20:23:39.569Z,19.76
2022-08-31T20:25:17.969Z,19.71
2022-08-31T20:26:52.757Z,19.67
2022-08-31T20:28:28.517Z,19.60
2022-08-31T20:30:03.252Z,19.64
2022-08-31T20:31:40.326Z,19.67
2022-08-31T20:33:13.100Z,19.65
2022-08-31T20:34:45.481Z,19.61
2022-08-31T20:36:20.067Z,19.60
2022-08-31T20:37:52.713Z,19.55
2022-08-31T20:39:26.913Z,19.51
2022-08-31T20:41:03.916Z,19.50
2022-08-31T20:42:36.385Z,19.44
2022-08-31T20:44:11.745Z,19.50
2022-08-31T20:45:44.043Z,19.49
2022-08-31T20:47:35.019Z,19.53
2022-08-31T20:49:26.548Z,19.55
2022-08-31T20:51:01.457Z,19.53
2022-08-31T20:52:35.558Z,19.54
2022-08-31T20:54:11.040Z,19.51
2022-08-31T20:55:43.665Z,19.46
2022-08-31T20:57:18.725Z,19.43
2022-08-31T20:58:51.822Z,19.41
2022-08-31T21:00:25.217Z,19.37
2022-08-31T21:02:00.164Z,19.35
2022-08-31T21:03:32.653Z,19.30
2022-08-31T21:06:59.422Z,19.23
2022-08-31T21:08:34.767Z,19.20
2022-08-31T21:10:09.936Z,19.15
2022-08-31T21:11:44.073Z,19.13
2022-08-31T21:13:17.231Z,19.10
2022-08-31T21:14:49.472Z,19.11
2022-08-31T21:16:22.214Z,19.10
2022-08-31T21:17:59.796Z,19.11
2022-08-31T21:21:07.145Z,19.12
2022-08-31T21:22:39.592Z,19.09
2022-08-31T21:24:14.393Z,19.09
2022-08-31T21:25:47.265Z,19.08
2022-08-31T21:27:19.532Z,19.04
2022-08-31T21:28:53.031Z,19.04
2022-08-31T21:30:25.585Z,19.02
2022-08-31T21:32:03.398Z,19.00
2022-08-31T21:33:36.258Z,18.96
2022-08-31T21:35:10.725Z,18.96
2022-08-31T21:36:46.329Z,18.94
2022-08-31T21:38:18.560Z,18.90
2022-08-31T21:39:54.519Z,18.90
2022-08-31T21:41:29.806Z,18.87
2022-08-31T21:43:02.457Z,18.83
2022-08-31T21:44:34.644Z,18.83
2022-08-31T21:46:33.580Z,18.83
2022-08-31T21:48:05.806Z,18.77
2022-08-31T21:49:37.990Z,18.76
2022-08-31T21:51:12.711Z,18.78
2022-08-31T21:52:44.772Z,18.75
2022-08-31T21:54:19.546Z,18.78
2022-08-31T21:55:52.566Z,18.75
2022-08-31T21:57:26.095Z,18.72
2022-08-31T21:58:59.044Z,18.70
2022-08-31T22:00:32.829Z,18.68
2022-08-31T22:02:09.692Z,18.72
2022-08-31T22:03:42.122Z,18.67
2022-08-31T22:05:14.336Z,18.67
2022-08-31T22:06:49.885Z,18.72
2022-08-31T22:08:26.423Z,18.72
2022-08-31T22:09:58.718Z,18.77
2022-08-31T22:11:33.305Z,18.81
2022-08-31T22:13:06.142Z,18.79
2022-08-31T22:14:39.513Z,18.84
2022-08-31T22:16:17.436Z,18.86
2022-08-31T22:18:25.887Z,18.81
2022-08-31T22:19:45.235Z,18.73
2022-08-31T22:21:24.367Z,18.68
2022-08-31T22:22:57.189Z,18.63
2022-08-31T22:24:32.893Z,18.58
2022-08-31T22:26:05.064Z,18.53
2022-08-31T22:27:37.212Z,18.50
2022-08-31T22:29:12.081Z,18.49
2022-08-31T22:30:44.286Z,18.50
2022-08-31T22:32:16.545Z,18.49
2022-08-31T22:33:52.487Z,18.55
2022-08-31T22:35:27.475Z,18.56
2022-08-31T22:36:59.616Z,18.52
2022-08-31T22:38:32.068Z,18.48
2022-08-31T22:40:04.972Z,18.46
2022-08-31T22:41:38.272Z,18.44
2022-08-31T22:43:10.169Z,18.49
2022-08-31T22:44:44.026Z,18.47
2022-08-31T22:46:22.043Z,18.49
2022-08-31T22:47:54.280Z,18.46
2022-08-31T22:49:27.418Z,18.46
2022-08-31T22:51:04.761Z,18.44
2022-08-31T22:52:37.155Z,18.38
2022-08-31T22:54:10.302Z,18.38
2022-08-31T22:55:43.377Z,18.37
2022-08-31T22:57:15.393Z,18.36